This is the latest recevied weather packets stored in our database for station/object N4TLC. If no packets are shown the sender has not sent any weather packets the latest 10 day(s).
| Time | Temp. | Humidity | Pressure | Rain* | Wind** | Luminosity | Snow |
|---|---|---|---|---|---|---|---|
| 1776890133 | 27.78° C | 25% | 1018.8 hPa | 0 mm | - | 311 W/m² | - |
| 1776889830 | 28.89° C | 23% | 1019 hPa | 0 mm | - | 624 W/m² | - |
| 1776889526 | 28.89° C | 25% | 1018.9 hPa | 0 mm | - | 623 W/m² | - |
| 1776889222 | 28.33° C | 25% | 1018.9 hPa | 0 mm | - | 621 W/m² | - |
| 1776888917 | 28.33° C | 25% | 1018.9 hPa | 0 mm | - | 703 W/m² | - |
| 1776888615 | 27.78° C | 25% | 1019.1 hPa | 0 mm | - | 739 W/m² | - |
| 1776888313 | 26.67° C | 26% | 1019.3 hPa | 0 mm | - | 546 W/m² | - |
| 1776888009 | 27.22° C | 25% | 1019.3 hPa | 0 mm | - | 372 W/m² | - |
| 1776887705 | 28.33° C | 24% | 1019.4 hPa | 0 mm | - | 878 W/m² | - |
| 1776887402 | 27.78° C | 25% | 1019.5 hPa | 0 mm | - | 805 W/m² | - |
| 1776887099 | 27.78° C | 26% | 1019.7 hPa | 0 mm | - | 782 W/m² | - |
| 1776886796 | 27.78° C | 25% | 1019.5 hPa | 0 mm | - | 802 W/m² | - |
| 1776886492 | 27.78° C | 24% | 1019.7 hPa | 0 mm | - | 810 W/m² | - |
| 1776886190 | 28.33° C | 24% | 1019.8 hPa | 0 mm | - | 827 W/m² | - |
| 1776885886 | 27.78° C | 25% | 1019.9 hPa | 0 mm | - | 833 W/m² | - |
| 1776885584 | 27.22° C | 25% | 1020.1 hPa | 0 mm | - | 844 W/m² | - |
| 1776885280 | 27.22° C | 26% | 1020 hPa | 0 mm | - | 857 W/m² | - |
| 1776884977 | 27.22° C | 26% | 1020.1 hPa | 0 mm | - | 873 W/m² | - |
| 1776884674 | 26.67° C | 26% | 1020.2 hPa | 0 mm | - | 877 W/m² | - |
| 1776884371 | 26.67° C | 26% | 1020.3 hPa | 0 mm | - | 885 W/m² | - |
| 1776884068 | 26.67° C | 27% | 1020.6 hPa | 0 mm | - | 901 W/m² | - |
| 1776883766 | 26.67° C | 25% | 1020.7 hPa | 0 mm | - | 907 W/m² | - |
| 1776883463 | 26.11° C | 26% | 1020.8 hPa | 0 mm | - | 915 W/m² | - |
| 1776883160 | 26.67° C | 26% | 1020.8 hPa | 0 mm | - | 926 W/m² | - |
| 1776882858 | 26.67° C | 27% | 1020.6 hPa | 0 mm | - | 928 W/m² | - |
* Rain latest hour (hover to see other rain measurements)
** Current wind speed in m/s (hover to see current wind gust speed)